createdAt,value
2022-09-16T00:01:23.415Z,1.60
2022-09-16T00:04:00.026Z,1.38
2022-09-16T00:06:32.613Z,1.05
2022-09-16T00:09:03.874Z,1.10
2022-09-16T00:11:38.171Z,0.73
2022-09-16T00:14:11.517Z,0.90
2022-09-16T00:16:43.137Z,0.65
2022-09-16T00:19:14.809Z,1.02
2022-09-16T00:21:48.856Z,1.50
2022-09-16T00:24:19.622Z,1.02
2022-09-16T00:26:52.055Z,1.00
2022-09-16T00:29:22.993Z,0.68
2022-09-16T00:31:53.974Z,0.80
2022-09-16T00:34:25.256Z,1.23
2022-09-16T00:36:56.111Z,0.63
2022-09-16T00:39:27.265Z,1.25
2022-09-16T00:41:58.561Z,1.15
2022-09-16T00:44:53.822Z,1.33
2022-09-16T00:47:39.470Z,1.30
2022-09-16T00:50:15.010Z,1.10
2022-09-16T00:52:46.031Z,1.85
2022-09-16T00:55:23.370Z,0.90
2022-09-16T00:57:56.932Z,1.17
2022-09-16T01:00:27.773Z,1.50
2022-09-16T01:02:58.709Z,1.60
2022-09-16T01:05:30.359Z,0.98
2022-09-16T01:08:01.146Z,0.98
2022-09-16T01:10:32.931Z,1.30
2022-09-16T01:13:08.570Z,0.93
2022-09-16T01:16:05.078Z,0.98
2022-09-16T01:18:38.433Z,1.05
2022-09-16T01:21:28.390Z,1.33
2022-09-16T01:24:36.724Z,0.95
2022-09-16T01:27:20.863Z,1.35
2022-09-16T01:30:18.995Z,1.00
2022-09-16T01:33:18.302Z,0.85
2022-09-16T01:35:56.520Z,0.60
2022-09-16T01:38:39.132Z,0.65
2022-09-16T01:41:26.692Z,1.10
2022-09-16T01:44:21.303Z,0.80
2022-09-16T01:47:03.191Z,1.23
2022-09-16T01:50:00.224Z,0.70
2022-09-16T01:52:36.523Z,1.10
2022-09-16T01:55:37.797Z,0.68
2022-09-16T01:58:29.786Z,0.77
2022-09-16T02:01:07.585Z,0.75
2022-09-16T02:03:42.175Z,0.70
2022-09-16T02:06:19.610Z,0.55
2022-09-16T02:09:11.257Z,1.30
2022-09-16T02:11:43.941Z,0.88
2022-09-16T02:14:22.590Z,0.70
2022-09-16T02:17:06.838Z,1.10
2022-09-16T02:19:40.015Z,1.48
2022-09-16T02:22:16.479Z,0.80
2022-09-16T02:24:49.491Z,1.08
2022-09-16T02:27:23.566Z,0.82
2022-09-16T02:30:02.375Z,1.27
2022-09-16T02:32:36.943Z,0.85
2022-09-16T02:35:10.138Z,0.85
2022-09-16T02:38:08.546Z,1.13
2022-09-16T02:40:52.488Z,0.50
2022-09-16T02:43:23.030Z,0.85
2022-09-16T02:46:03.294Z,0.80
2022-09-16T02:48:52.083Z,0.50
2022-09-16T02:51:37.072Z,1.15
2022-09-16T02:54:26.266Z,0.40
2022-09-16T02:59:27.234Z,0.88
2022-09-16T03:01:57.683Z,0.98
2022-09-16T03:06:57.597Z,0.68
2022-09-16T03:09:31.410Z,0.40
2022-09-16T03:12:27.867Z,0.73
2022-09-16T03:15:23.286Z,0.57
2022-09-16T03:20:52.200Z,1.10
2022-09-16T03:23:48.455Z,0.50
2022-09-16T03:26:47.378Z,0.68
2022-09-16T03:29:35.304Z,0.50
2022-09-16T03:32:05.727Z,0.60
2022-09-16T03:34:46.719Z,0.40
2022-09-16T03:37:20.853Z,0.50
2022-09-16T03:39:57.983Z,0.60
2022-09-16T03:42:28.454Z,0.38
2022-09-16T03:44:58.829Z,0.43
2022-09-16T03:47:29.410Z,0.30
2022-09-16T03:49:59.724Z,0.88
2022-09-16T03:52:30.026Z,0.70
2022-09-16T03:55:00.387Z,0.73
2022-09-16T03:57:32.057Z,0.60
2022-09-16T04:00:02.631Z,0.40
2022-09-16T04:02:41.482Z,0.40
2022-09-16T04:05:12.151Z,0.10
2022-09-16T04:07:42.578Z,0.63
2022-09-16T04:10:13.660Z,0.40
2022-09-16T04:12:44.551Z,0.77
2022-09-16T04:15:14.980Z,0.30
2022-09-16T04:17:45.562Z,0.20
2022-09-16T04:22:45.658Z,0.52
2022-09-16T04:27:45.701Z,0.43
2022-09-16T04:30:16.073Z,0.68
2022-09-16T04:32:46.389Z,0.10
2022-09-16T04:35:18.521Z,0.88
2022-09-16T04:37:49.036Z,0.40
2022-09-16T04:40:19.798Z,0.40
2022-09-16T04:42:53.985Z,1.00
2022-09-16T04:45:24.328Z,0.68
2022-09-16T04:48:00.853Z,0.50
2022-09-16T04:50:31.205Z,0.30
2022-09-16T04:53:01.853Z,0.80
2022-09-16T04:55:32.780Z,0.50
2022-09-16T04:58:03.540Z,0.80
2022-09-16T05:00:34.153Z,0.32
2022-09-16T05:03:04.775Z,0.52
2022-09-16T05:05:35.115Z,0.40
2022-09-16T05:08:05.709Z,1.55
2022-09-16T05:10:36.614Z,1.33
2022-09-16T05:13:07.465Z,1.55
2022-09-16T05:15:37.617Z,1.35
2022-09-16T05:18:08.132Z,0.50
2022-09-16T05:23:09.314Z,0.82
2022-09-16T05:25:39.722Z,0.52
2022-09-16T05:28:10.441Z,0.70
2022-09-16T05:30:41.048Z,1.20
2022-09-16T05:33:11.382Z,0.55
2022-09-16T05:38:14.812Z,0.52
2022-09-16T05:40:45.183Z,0.63
2022-09-16T05:43:15.645Z,0.50
2022-09-16T05:48:15.704Z,1.08
2022-09-16T05:50:57.854Z,0.80
2022-09-16T05:53:29.355Z,0.98
2022-09-16T05:56:15.799Z,0.63
2022-09-16T05:58:46.906Z,1.15
2022-09-16T06:01:27.636Z,0.93
2022-09-16T06:03:58.955Z,0.32
2022-09-16T06:09:02.976Z,0.80
2022-09-16T06:11:33.587Z,1.30
2022-09-16T06:14:04.627Z,2.83
2022-09-16T06:16:35.498Z,4.55
2022-09-16T06:19:11.869Z,5.00
2022-09-16T06:21:44.843Z,4.82
2022-09-16T06:24:17.314Z,5.50
2022-09-16T06:26:49.624Z,6.25
2022-09-16T06:29:20.519Z,6.88
2022-09-16T06:31:51.142Z,6.20
2022-09-16T06:34:21.552Z,5.32
2022-09-16T06:36:51.844Z,6.05
2022-09-16T06:39:23.742Z,7.07
2022-09-16T06:41:54.260Z,5.32
2022-09-16T06:44:34.703Z,5.57
2022-09-16T06:49:34.508Z,3.10
2022-09-16T06:52:04.981Z,2.83
2022-09-16T06:54:35.683Z,3.05
2022-09-16T06:57:10.050Z,3.50
2022-09-16T06:59:42.723Z,3.17
2022-09-16T07:04:43.635Z,2.63
2022-09-16T07:07:14.961Z,2.47
2022-09-16T07:09:45.448Z,2.90
2022-09-16T07:12:19.541Z,2.45
2022-09-16T07:14:50.653Z,2.60
2022-09-16T07:17:21.016Z,2.92
2022-09-16T07:19:51.430Z,3.42
2022-09-16T07:22:21.786Z,2.33
2022-09-16T07:24:55.634Z,3.38
2022-09-16T07:27:25.959Z,3.30
2022-09-16T07:30:00.119Z,3.50
2022-09-16T07:32:30.752Z,3.65
2022-09-16T07:35:01.123Z,2.92
2022-09-16T07:37:31.446Z,3.28
2022-09-16T07:40:01.866Z,3.28
2022-09-16T07:42:32.319Z,3.05
2022-09-16T07:45:02.581Z,2.30
2022-09-16T07:47:32.894Z,3.38
2022-09-16T07:50:03.405Z,2.20
2022-09-16T07:52:33.537Z,2.67
2022-09-16T07:55:04.011Z,2.13
2022-09-16T08:00:04.306Z,1.70
2022-09-16T08:02:41.140Z,1.33
2022-09-16T08:05:12.112Z,1.35
2022-09-16T08:07:42.506Z,1.42
2022-09-16T08:10:12.941Z,2.33
2022-09-16T08:15:13.567Z,3.38
2022-09-16T08:17:44.005Z,3.28
2022-09-16T08:20:14.480Z,4.25
2022-09-16T08:25:14.904Z,3.92
2022-09-16T08:27:45.276Z,4.20
2022-09-16T08:30:17.042Z,3.17
2022-09-16T08:32:47.462Z,2.35
2022-09-16T08:35:17.958Z,1.95
2022-09-16T08:40:24.435Z,2.63
2022-09-16T08:43:06.247Z,2.65
2022-09-16T08:45:54.126Z,2.72
2022-09-16T08:48:33.818Z,2.47
2022-09-16T08:51:05.233Z,2.63
2022-09-16T08:53:53.606Z,1.70
2022-09-16T08:56:27.121Z,1.77
2022-09-16T08:59:01.539Z,1.70
2022-09-16T09:01:41.199Z,1.52
2022-09-16T09:04:13.408Z,0.90
2022-09-16T09:06:57.303Z,1.40
2022-09-16T09:09:37.459Z,1.48
2022-09-16T09:12:20.799Z,1.00
2022-09-16T09:15:03.299Z,1.50
2022-09-16T09:18:16.154Z,1.30
2022-09-16T09:20:49.660Z,1.70
2022-09-16T09:23:56.811Z,1.67
2022-09-16T09:26:55.286Z,2.03
2022-09-16T09:29:38.112Z,1.90
2022-09-16T09:32:08.747Z,4.05
2022-09-16T09:35:17.612Z,4.35
2022-09-16T09:38:09.202Z,3.90
2022-09-16T09:40:39.597Z,3.63
2022-09-16T09:43:16.057Z,4.07
2022-09-16T09:46:04.389Z,5.32
2022-09-16T09:49:09.368Z,3.90
2022-09-16T09:52:04.092Z,3.90
2022-09-16T09:54:37.082Z,5.63
2022-09-16T09:57:10.676Z,5.50
2022-09-16T10:00:02.086Z,5.72
2022-09-16T10:02:47.478Z,3.95
2022-09-16T10:05:30.732Z,5.35
2022-09-16T10:08:06.694Z,5.35
2022-09-16T10:10:42.617Z,4.50
2022-09-16T10:13:14.556Z,4.28
2022-09-16T10:15:45.238Z,4.80
2022-09-16T10:18:34.173Z,6.45
2022-09-16T10:21:11.201Z,6.68
2022-09-16T10:23:41.868Z,6.95
2022-09-16T10:26:21.655Z,7.50
2022-09-16T10:29:14.517Z,6.28
2022-09-16T10:31:45.391Z,7.15
2022-09-16T10:34:35.302Z,8.20
2022-09-16T10:37:14.537Z,6.00
2022-09-16T10:39:58.705Z,5.55
2022-09-16T10:42:30.688Z,4.72
2022-09-16T10:45:15.487Z,5.20
2022-09-16T10:47:52.345Z,5.85
2022-09-16T10:50:23.361Z,6.28
2022-09-16T10:52:55.132Z,4.32
2022-09-16T10:55:29.258Z,6.00
2022-09-16T10:58:19.422Z,5.55
2022-09-16T11:01:09.379Z,5.63
2022-09-16T11:04:05.283Z,5.65
2022-09-16T11:06:58.769Z,4.47
2022-09-16T11:09:58.132Z,4.47
2022-09-16T11:12:45.256Z,4.90
2022-09-16T11:15:29.862Z,3.90
2022-09-16T11:18:00.189Z,4.45
2022-09-16T11:20:33.223Z,3.85
2022-09-16T11:23:38.628Z,3.28
2022-09-16T11:26:39.659Z,2.55
2022-09-16T11:29:12.871Z,2.03
2022-09-16T11:32:04.663Z,1.83
2022-09-16T11:35:14.597Z,2.00
2022-09-16T11:38:02.469Z,1.95
2022-09-16T11:40:42.400Z,1.52
2022-09-16T11:43:37.035Z,2.55
2022-09-16T11:46:17.413Z,1.85
2022-09-16T11:49:16.970Z,2.45
2022-09-16T11:52:28.074Z,2.15
2022-09-16T11:55:24.464Z,2.33
2022-09-16T11:58:16.659Z,2.13
2022-09-16T12:00:49.012Z,2.85
2022-09-16T12:03:28.533Z,1.52
2022-09-16T12:06:06.328Z,4.65
2022-09-16T12:08:42.766Z,3.05
2022-09-16T12:11:37.660Z,3.58
2022-09-16T12:14:20.232Z,1.70
2022-09-16T12:17:08.948Z,1.67
2022-09-16T12:20:01.856Z,1.23
2022-09-16T12:23:12.351Z,0.60
2022-09-16T12:26:12.533Z,0.75
2022-09-16T12:28:47.427Z,0.22
2022-09-16T12:31:32.918Z,0.38
2022-09-16T12:34:12.822Z,0.43
2022-09-16T12:36:47.445Z,0.30
2022-09-16T12:39:17.892Z,0.32
2022-09-16T12:45:06.855Z,0.30
2022-09-16T12:48:00.522Z,0.30
2022-09-16T12:50:55.494Z,0.17
2022-09-16T12:53:53.418Z,0.57
2022-09-16T12:56:27.009Z,0.63
2022-09-16T12:59:29.277Z,0.50
2022-09-16T13:02:06.178Z,0.22
2022-09-16T13:04:42.138Z,0.40
2022-09-16T13:07:30.690Z,0.47
2022-09-16T13:10:26.456Z,0.80
2022-09-16T13:13:07.064Z,0.38
2022-09-16T13:15:40.859Z,0.57
2022-09-16T13:18:20.553Z,0.32
2022-09-16T13:21:25.356Z,0.35
2022-09-16T13:24:07.276Z,0.50
2022-09-16T13:26:43.916Z,0.30
2022-09-16T13:29:39.520Z,0.13
2022-09-16T13:32:41.595Z,0.20
2022-09-16T13:35:21.612Z,0.20
2022-09-16T13:37:56.641Z,0.30
2022-09-16T13:40:30.186Z,0.25
2022-09-16T13:43:16.230Z,0.30
2022-09-16T13:45:47.837Z,0.17
2022-09-16T13:48:20.239Z,0.43
2022-09-16T13:50:57.938Z,0.50
2022-09-16T13:53:44.850Z,0.40
2022-09-16T13:56:30.317Z,0.30
2022-09-16T13:59:42.852Z,0.30
2022-09-16T14:02:47.208Z,0.43
2022-09-16T14:05:32.971Z,0.28
2022-09-16T14:08:24.751Z,0.60
2022-09-16T14:11:13.375Z,0.38
2022-09-16T14:13:51.807Z,0.20
2022-09-16T14:16:29.202Z,0.40
2022-09-16T14:19:09.839Z,0.60
2022-09-16T14:21:40.554Z,0.40
2022-09-16T14:24:21.726Z,0.43
2022-09-16T14:26:57.556Z,0.45
2022-09-16T14:29:30.952Z,0.20
2022-09-16T14:32:01.948Z,0.30
2022-09-16T14:34:39.711Z,0.52
2022-09-16T14:37:17.248Z,0.57
2022-09-16T14:39:54.504Z,0.20
2022-09-16T14:42:26.512Z,0.32
2022-09-16T14:44:58.292Z,0.60
2022-09-16T14:47:51.185Z,0.45
2022-09-16T14:50:34.894Z,0.40
2022-09-16T14:55:41.375Z,0.38
2022-09-16T14:58:13.848Z,0.20
2022-09-16T15:00:54.768Z,0.60
2022-09-16T15:03:44.158Z,0.40
2022-09-16T15:06:20.396Z,0.50
2022-09-16T15:08:59.931Z,0.40
2022-09-16T15:11:47.614Z,0.30
2022-09-16T15:14:20.394Z,0.30
2022-09-16T15:16:55.379Z,0.45
2022-09-16T15:19:30.628Z,0.15
2022-09-16T15:22:01.324Z,0.50
2022-09-16T15:24:35.516Z,0.50
2022-09-16T15:27:06.173Z,0.60
2022-09-16T15:29:48.501Z,0.17
2022-09-16T15:32:22.062Z,0.35
2022-09-16T15:35:20.588Z,0.40
2022-09-16T15:37:51.479Z,0.52
2022-09-16T15:40:28.344Z,0.25
2022-09-16T15:43:09.151Z,0.30
2022-09-16T15:45:43.246Z,0.15
2022-09-16T15:48:22.110Z,0.43
2022-09-16T15:50:57.210Z,0.30
2022-09-16T15:53:33.864Z,0.25
2022-09-16T15:56:33.039Z,0.25
2022-09-16T15:59:22.688Z,0.30
2022-09-16T16:01:56.841Z,0.50
2022-09-16T16:04:34.565Z,0.52
2022-09-16T16:07:07.404Z,0.22
2022-09-16T16:09:41.550Z,0.40
2022-09-16T16:12:15.232Z,0.40
2022-09-16T16:14:47.078Z,0.40
2022-09-16T16:17:23.125Z,0.50
2022-09-16T16:19:53.615Z,0.60
2022-09-16T16:22:24.566Z,0.52
2022-09-16T16:24:55.050Z,0.40
2022-09-16T16:27:25.467Z,0.30
2022-09-16T16:29:55.819Z,0.50
2022-09-16T16:32:26.809Z,0.70
2022-09-16T16:34:59.405Z,0.30
2022-09-16T16:37:46.747Z,0.38
2022-09-16T16:40:18.187Z,0.30
2022-09-16T16:42:48.847Z,0.47
2022-09-16T16:45:19.657Z,0.30
2022-09-16T16:47:50.349Z,0.30
2022-09-16T16:50:20.885Z,0.60
2022-09-16T16:52:54.488Z,0.60
2022-09-16T16:55:25.360Z,0.60
2022-09-16T16:57:55.715Z,0.73
2022-09-16T17:00:25.953Z,0.52
2022-09-16T17:02:56.523Z,0.75
2022-09-16T17:05:27.045Z,0.40
2022-09-16T17:07:57.476Z,0.70
2022-09-16T17:10:27.623Z,0.50
2022-09-16T17:12:58.034Z,0.40
2022-09-16T17:15:28.519Z,0.63
2022-09-16T17:17:58.801Z,0.90
2022-09-16T17:20:29.261Z,0.57
2022-09-16T17:22:59.732Z,0.52
2022-09-16T17:25:30.146Z,0.43
2022-09-16T17:28:00.517Z,0.65
2022-09-16T17:30:30.861Z,0.80
2022-09-16T17:33:01.735Z,0.70
2022-09-16T17:35:32.500Z,0.30
2022-09-16T17:38:06.684Z,0.40
2022-09-16T17:40:37.619Z,0.73
2022-09-16T17:43:08.106Z,0.55
2022-09-16T17:45:38.666Z,0.80
2022-09-16T17:48:09.183Z,0.50
2022-09-16T17:50:40.146Z,0.88
2022-09-16T17:53:15.590Z,0.82
2022-09-16T17:55:46.219Z,0.50
2022-09-16T17:58:17.061Z,0.70
2022-09-16T18:00:47.557Z,0.60
2022-09-16T18:03:18.098Z,0.60
2022-09-16T18:05:48.756Z,1.75
2022-09-16T18:08:19.199Z,0.55
2022-09-16T18:10:54.864Z,0.70
2022-09-16T18:13:25.617Z,0.70
2022-09-16T18:15:56.042Z,0.50
2022-09-16T18:18:26.695Z,0.50
2022-09-16T18:20:57.816Z,0.70
2022-09-16T18:23:28.926Z,0.63
2022-09-16T18:25:59.403Z,0.70
2022-09-16T18:28:29.870Z,0.38
2022-09-16T18:31:12.577Z,0.50
2022-09-16T18:33:44.496Z,0.45
2022-09-16T18:36:19.538Z,0.50
2022-09-16T18:38:53.540Z,1.05
2022-09-16T18:41:26.733Z,0.50
2022-09-16T18:44:00.009Z,0.50
2022-09-16T18:46:32.943Z,0.90
2022-09-16T18:49:04.180Z,0.77
2022-09-16T18:51:47.292Z,0.60
2022-09-16T18:54:30.088Z,0.70
2022-09-16T18:57:02.495Z,0.55
2022-09-16T18:59:35.510Z,0.70
2022-09-16T19:02:07.497Z,0.52
2022-09-16T19:04:43.025Z,0.40
2022-09-16T19:07:16.236Z,0.63
2022-09-16T19:09:47.976Z,0.80
2022-09-16T19:12:18.393Z,1.13
2022-09-16T19:14:48.915Z,1.02
2022-09-16T19:17:20.176Z,0.75
2022-09-16T19:19:52.208Z,0.60
2022-09-16T19:22:22.545Z,0.50
2022-09-16T19:24:55.437Z,0.88
2022-09-16T19:27:25.733Z,0.88
2022-09-16T19:29:56.166Z,0.85
2022-09-16T19:32:26.891Z,0.82
2022-09-16T19:34:57.914Z,0.60
2022-09-16T19:37:28.392Z,0.70
2022-09-16T19:39:59.071Z,0.30
2022-09-16T19:42:29.670Z,0.70
2022-09-16T19:45:00.164Z,0.40
2022-09-16T19:47:30.623Z,0.75
2022-09-16T19:50:02.022Z,0.70
2022-09-16T19:52:32.477Z,0.50
2022-09-16T19:55:02.670Z,0.30
2022-09-16T19:57:33.094Z,0.70
2022-09-16T20:00:04.827Z,0.68
2022-09-16T20:02:43.377Z,0.55
2022-09-16T20:05:14.500Z,0.70
2022-09-16T20:07:44.827Z,0.50
2022-09-16T20:10:15.476Z,0.70
2022-09-16T20:12:45.964Z,0.60
2022-09-16T20:15:16.821Z,0.75
2022-09-16T20:17:47.052Z,1.00
2022-09-16T20:20:17.631Z,0.52
2022-09-16T20:22:47.966Z,0.43
2022-09-16T20:25:23.339Z,0.70
2022-09-16T20:27:54.253Z,0.60
2022-09-16T20:30:24.679Z,0.93
2022-09-16T20:32:55.102Z,0.63
2022-09-16T20:35:25.959Z,0.50
2022-09-16T20:37:56.278Z,1.02
2022-09-16T20:40:26.706Z,0.90
2022-09-16T20:42:57.237Z,0.77
2022-09-16T20:45:27.702Z,1.00
2022-09-16T20:47:58.014Z,1.30
2022-09-16T20:50:28.401Z,1.00
2022-09-16T20:52:58.719Z,1.13
2022-09-16T20:55:29.250Z,0.70
2022-09-16T20:57:59.748Z,1.13
2022-09-16T21:00:30.332Z,1.02
2022-09-16T21:03:02.056Z,0.82
2022-09-16T21:05:32.600Z,1.25
2022-09-16T21:08:03.173Z,0.90
2022-09-16T21:10:34.352Z,1.02
2022-09-16T21:13:05.980Z,0.65
2022-09-16T21:15:36.540Z,0.75
2022-09-16T21:18:07.037Z,1.38
2022-09-16T21:20:37.442Z,0.77
2022-09-16T21:23:07.696Z,0.80
2022-09-16T21:28:09.310Z,0.98
2022-09-16T21:30:39.807Z,0.38
2022-09-16T21:33:10.179Z,0.68
2022-09-16T21:35:41.666Z,0.47
2022-09-16T21:38:12.139Z,0.70
2022-09-16T21:40:42.732Z,0.93
2022-09-16T21:43:13.263Z,0.60
2022-09-16T21:45:48.057Z,0.95
2022-09-16T21:48:20.601Z,0.95
2022-09-16T21:50:51.863Z,0.70
2022-09-16T21:53:23.052Z,1.42
2022-09-16T21:55:53.692Z,1.05
2022-09-16T21:58:24.058Z,0.70
2022-09-16T22:00:54.527Z,1.00
2022-09-16T22:03:25.038Z,1.02
2022-09-16T22:05:59.259Z,1.15
2022-09-16T22:08:29.951Z,0.98
2022-09-16T22:11:20.571Z,1.42
2022-09-16T22:13:51.333Z,1.38
2022-09-16T22:16:30.888Z,1.50
2022-09-16T22:19:03.835Z,1.20
2022-09-16T22:21:36.012Z,1.15
2022-09-16T22:24:07.958Z,0.85
2022-09-16T22:26:39.223Z,1.25
2022-09-16T22:29:10.643Z,1.15
2022-09-16T22:31:43.184Z,1.42
2022-09-16T22:34:13.766Z,1.02
2022-09-16T22:36:44.696Z,1.42
2022-09-16T22:39:19.115Z,1.20
2022-09-16T22:41:49.980Z,1.00
2022-09-16T22:44:20.364Z,1.08
2022-09-16T22:49:20.820Z,0.88
2022-09-16T22:51:51.408Z,0.98
2022-09-16T22:54:21.819Z,1.10
2022-09-16T22:56:52.375Z,1.00
2022-09-16T22:59:22.959Z,0.88
2022-09-16T23:04:23.425Z,0.65
2022-09-16T23:06:53.896Z,0.93
2022-09-16T23:09:24.617Z,0.60
2022-09-16T23:11:55.079Z,0.52
2022-09-16T23:14:27.958Z,0.77
2022-09-16T23:16:58.889Z,0.45
2022-09-16T23:19:29.457Z,1.00
2022-09-16T23:21:59.827Z,1.02
2022-09-16T23:26:59.994Z,0.73
2022-09-16T23:29:30.382Z,1.23
2022-09-16T23:32:03.993Z,1.20
2022-09-16T23:34:34.354Z,1.25
2022-09-16T23:39:34.948Z,0.93
2022-09-16T23:42:05.674Z,1.08
2022-09-16T23:44:36.187Z,0.82
2022-09-16T23:47:06.870Z,0.95
2022-09-16T23:49:37.227Z,1.63
2022-09-16T23:54:37.589Z,1.30
2022-09-16T23:57:08.535Z,1.25
2022-09-16T23:59:39.018Z,0.82
